Battle Ground, Indiana
Current Conditions -  °F | °C
As of 11:54 AM on Friday 31 Oct 2014 (Local Time) from KLAF Reporting Station
Overcast Overcast  
Wind Chill: 32°   Ceiling: 2700
Heat Index: 40°   Visibility: 10mi
Dew Point: 31°   Wind: 15mph
Humidity: 70%   Direction: 320°NW
Pressure: 30.06"   Gusts: 26mph
Location:  40.51°N, 86.84°W
Report Text: KLAF 311554Z 32013G23KT 10SM BKN027 BKN032 OVC090 04/M01 A3006 RMK AO2 SLP183 T00441006
Loading
Personal Weather Stations






























Interactive Weather Map New forecast layout! Learn more

10-Day Weather Forecast

Advertisements
Track Severe Weather on mobile